Time;durP1;ratioP1;P1;durP2;ratioP2;P2;SDS_P1;SDS_P2;PMS_P1;PMS_P2;Temp;Humidity;BMP_temperature;BMP_pressure;BME280_temperature;BME280_humidity;BME280_pressure;Samples;Min_cycle;Max_cycle;Signal;HPM_P1;HPM_P2
2023/03/20 00:02:18;;;;;;;20.95;7.32;;;;;;;5.08;100.00;102041.34;5114634;28;20599;-73
2023/03/20 00:04:43;;;;;;;14.23;7.15;;;;;;;5.00;100.00;102041.72;5114696;28;20471;-74
2023/03/20 00:07:11;;;;;;;15.57;6.95;;;;;;;4.91;100.00;102043.00;5114941;28;20107;-74
2023/03/20 00:09:37;;;;;;;13.55;6.53;;;;;;;4.84;100.00;102048.63;5114328;28;20020;-74
2023/03/20 00:12:04;;;;;;;15.88;7.13;;;;;;;4.80;100.00;102054.97;5114884;28;20032;-74
2023/03/20 00:14:30;;;;;;;12.77;6.38;;;;;;;4.77;100.00;102066.50;5114407;28;20031;-74
2023/03/20 00:16:55;;;;;;;16.48;7.25;;;;;;;4.77;100.00;102069.16;5113470;28;20163;-74
2023/03/20 00:19:28;;;;;;;19.95;7.50;;;;;;;4.82;100.00;102085.63;5114465;28;20468;-74
2023/03/20 00:21:54;;;;;;;17.23;6.90;;;;;;;4.86;100.00;102088.97;5114526;28;20114;-74
2023/03/20 00:24:20;;;;;;;21.83;7.18;;;;;;;4.95;100.00;102078.81;5113467;28;20570;-74
2023/03/20 00:26:47;;;;;;;13.77;6.82;;;;;;;5.01;100.00;102071.56;5113783;28;20027;-75
2023/03/20 00:29:22;;;;;;;18.05;7.38;;;;;;;5.01;100.00;102075.06;5113123;28;20073;-74
2023/03/20 00:31:48;;;;;;;19.08;7.07;;;;;;;5.00;100.00;102073.38;5113822;28;20031;-74
2023/03/20 00:34:19;;;;;;;15.75;6.60;;;;;;;4.98;100.00;102058.53;5114538;28;20092;-74
2023/03/20 00:36:44;;;;;;;18.40;7.05;;;;;;;4.95;100.00;102060.38;5113865;28;20375;-74
2023/03/20 00:39:10;;;;;;;16.77;6.78;;;;;;;4.92;100.00;102051.75;5114312;28;20036;-73
2023/03/20 00:41:38;;;;;;;19.50;7.50;;;;;;;4.90;100.00;102048.34;5113911;28;20042;-73
2023/03/20 00:44:14;;;;;;;19.40;7.75;;;;;;;4.86;100.00;102055.53;5114231;28;20063;-74
2023/03/20 00:46:40;;;;;;;26.13;8.63;;;;;;;4.83;100.00;102050.41;5113778;28;20035;-74
2023/03/20 00:49:06;;;;;;;21.50;8.00;;;;;;;4.81;100.00;102048.75;5114237;28;20464;-74
2023/03/20 00:51:31;;;;;;;20.17;7.82;;;;;;;4.79;100.00;102040.91;5113637;28;20040;-74
2023/03/20 00:53:57;;;;;;;17.33;9.00;;;;;;;4.75;100.00;102029.66;5114064;28;20519;-73
2023/03/20 00:56:41;;;;;;;22.10;8.27;;;;;;;4.75;100.00;102027.03;5113754;28;20445;-73
2023/03/20 00:59:16;;;;;;;15.73;7.90;;;;;;;4.73;100.00;102035.94;5114132;28;20487;-74
2023/03/20 01:01:42;;;;;;;16.75;7.93;;;;;;;4.70;100.00;102029.03;5113534;28;20495;-72
2023/03/20 01:04:13;;;;;;;15.82;7.80;;;;;;;4.67;100.00;102023.03;5113849;28;20031;-72
2023/03/20 01:06:39;;;;;;;18.50;8.15;;;;;;;4.65;100.00;102023.13;5113446;28;20048;-75
2023/03/20 01:09:04;;;;;;;24.10;7.05;;;;;;;4.63;100.00;102030.25;5113574;28;20023;-73
2023/03/20 01:11:30;;;;;;;18.08;7.20;;;;;;;4.59;100.00;102040.06;5113694;28;20023;-73
2023/03/20 01:13:56;;;;;;;20.90;7.72;;;;;;;4.59;100.00;102047.97;5113066;28;20425;-73
2023/03/20 01:16:24;;;;;;;13.52;7.13;;;;;;;4.59;100.00;102065.59;5113608;28;20384;-73
2023/03/20 01:18:50;;;;;;;21.55;7.55;;;;;;;4.57;100.00;102070.94;5113439;28;20050;-72
2023/03/20 01:21:17;;;;;;;15.40;7.82;;;;;;;4.55;100.00;102067.53;5113132;28;20491;-72
2023/03/20 01:23:42;;;;;;;20.38;7.55;;;;;;;4.54;100.00;102086.88;5112994;28;20037;-74
2023/03/20 01:26:32;;;;;;;13.77;6.95;;;;;;;4.57;100.00;102092.03;5113376;28;20080;-73
2023/03/20 01:28:58;;;;;;;21.10;7.80;;;;;;;4.63;100.00;102095.28;5112516;28;20031;-73
2023/03/20 01:31:23;;;;;;;19.45;8.23;;;;;;;4.68;100.00;102091.53;5094875;28;20077;-73
2023/03/20 01:33:49;;;;;;;18.17;7.70;;;;;;;4.73;100.00;102086.91;5112363;28;20056;-73
2023/03/20 01:36:19;;;;;;;16.77;8.35;;;;;;;4.73;100.00;102089.53;5113201;28;20480;-73
2023/03/20 01:38:44;;;;;;;21.42;7.85;;;;;;;4.71;100.00;102075.56;5113154;28;20031;-73
2023/03/20 01:41:11;;;;;;;20.08;8.68;;;;;;;4.76;100.00;102073.59;5113308;28;20471;-73
2023/03/20 01:43:37;;;;;;;18.67;8.15;;;;;;;4.79;100.00;102072.56;5112801;28;20046;-73
2023/03/20 01:46:39;;;;;;;19.85;8.00;;;;;;;4.80;100.00;102063.72;5113031;28;20392;-73
2023/03/20 01:49:27;;;;;;;;;;;;;;;4.84;100.00;102072.38;5050529;28;20128;-73
2023/03/20 01:51:55;;;;;;;17.40;7.57;;;;;;;4.89;100.00;102067.72;5109808;28;20422;-74
2023/03/20 01:54:32;;;;;;;23.05;8.82;;;;;;;4.88;100.00;102064.25;5112911;28;20057;-73
2023/03/20 01:57:27;;;;;;;16.98;7.97;;;;;;;4.89;100.00;102070.38;5112531;28;20035;-73
2023/03/20 01:59:56;;;;;;;14.65;7.90;;;;;;;4.89;100.00;102058.03;5109214;27;20036;-73
2023/03/20 02:02:26;;;;;;;18.23;8.02;;;;;;;4.90;100.00;102053.63;5112867;28;20377;-73
2023/03/20 02:04:56;;;;;;;18.33;8.55;;;;;;;4.91;100.00;102039.47;5112412;28;20108;-73
2023/03/20 02:07:23;;;;;;;16.70;7.93;;;;;;;4.92;100.00;102044.69;5112758;28;20154;-73
2023/03/20 02:09:49;;;;;;;18.90;7.85;;;;;;;4.91;100.00;102039.47;5112241;28;20042;-72
2023/03/20 02:12:16;;;;;;;18.17;8.00;;;;;;;4.87;100.00;102028.25;5112880;28;20036;-72
2023/03/20 02:14:44;;;;;;;17.38;8.43;;;;;;;4.83;100.00;102028.47;5112401;28;20028;-73
2023/03/20 02:17:10;;;;;;;16.25;8.25;;;;;;;4.79;100.00;102030.38;5112546;28;20034;-72
2023/03/20 02:19:55;;;;;;;20.65;9.05;;;;;;;4.72;100.00;102015.78;5112324;28;20035;-73
2023/03/20 02:22:51;;;;;;;21.92;8.48;;;;;;;4.68;100.00;102011.56;5112974;28;20035;-73
2023/03/20 02:25:53;;;;;;;16.70;8.65;;;;;;;4.61;100.00;102018.06;5111597;28;20127;-74
2023/03/20 02:28:58;;;;;;;20.90;8.65;;;;;;;4.54;100.00;101999.06;5112777;28;20032;-74
2023/03/20 02:31:47;;;;;;;19.63;8.70;;;;;;;4.52;100.00;102001.75;5112429;28;20460;-74
2023/03/20 02:34:30;;;;;;;17.95;8.55;;;;;;;4.51;100.00;102010.59;5112640;28;20035;-74
2023/03/20 02:37:33;;;;;;;21.25;9.55;;;;;;;4.56;100.00;102020.91;5112099;28;20382;-73
2023/03/20 02:40:25;;;;;;;23.27;9.60;;;;;;;4.62;100.00;102015.34;5112868;28;20035;-74
2023/03/20 02:43:37;;;;;;;24.63;10.80;;;;;;;4.67;100.00;102015.13;5116228;28;20081;-73
2023/03/20 02:46:07;;;;;;;23.23;9.70;;;;;;;4.70;100.00;102014.97;5114914;28;20471;-73
2023/03/20 02:48:50;;;;;;;20.83;9.77;;;;;;;4.74;100.00;102016.56;5116223;28;20055;-73
2023/03/20 02:51:23;;;;;;;22.48;10.90;;;;;;;4.77;100.00;102013.78;5116535;28;20038;-74
2023/03/20 02:54:03;;;;;;;20.55;10.30;;;;;;;4.81;100.00;102010.06;5116015;28;20027;-73
2023/03/20 02:56:53;;;;;;;19.92;10.05;;;;;;;4.86;100.00;102005.41;5116471;28;20027;-73
2023/03/20 02:59:37;;;;;;;20.70;10.18;;;;;;;4.88;100.00;102000.06;5116489;28;20061;-73
2023/03/20 03:02:07;;;;;;;21.50;9.50;;;;;;;4.91;100.00;101997.28;5115608;28;20376;-73
2023/03/20 03:04:39;;;;;;;21.30;10.07;;;;;;;4.90;100.00;101999.06;5116096;28;20050;-73
2023/03/20 03:07:09;;;;;;;20.67;9.95;;;;;;;4.90;100.00;102000.88;5115881;28;20098;-74
2023/03/20 03:09:41;;;;;;;27.25;11.27;;;;;;;4.89;100.00;101984.16;5116078;28;20463;-72
2023/03/20 03:12:14;;;;;;;18.88;10.60;;;;;;;4.87;100.00;101986.03;5115266;28;20033;-72
2023/03/20 03:14:47;;;;;;;24.48;10.65;;;;;;;4.87;100.00;101990.47;5116014;28;20032;-72
2023/03/20 03:17:15;;;;;;;23.63;11.05;;;;;;;4.84;100.00;101987.97;5115260;28;20387;-74
2023/03/20 03:19:45;;;;;;;23.63;11.07;;;;;;;4.83;100.00;101978.34;5115824;28;20455;-73
2023/03/20 03:22:11;;;;;;;22.88;11.90;;;;;;;4.80;100.00;101968.81;5115706;28;20039;-73
2023/03/20 03:24:47;;;;;;;23.98;11.35;;;;;;;4.79;100.00;101968.88;5115713;27;20042;-73
2023/03/20 03:27:30;;;;;;;30.65;12.35;;;;;;;4.76;100.00;101965.47;5115341;28;20047;-74
2023/03/20 03:30:00;;;;;;;24.67;11.65;;;;;;;4.77;100.00;101967.16;5115074;28;20024;-73
2023/03/20 03:32:32;;;;;;;21.05;11.63;;;;;;;4.76;100.00;101965.47;5115040;28;20061;-73
2023/03/20 03:35:00;;;;;;;26.02;11.68;;;;;;;4.74;100.00;101969.94;5115237;28;20080;-73
2023/03/20 03:37:39;;;;;;;23.05;12.32;;;;;;;4.74;100.00;101969.09;5115603;27;20043;-73
2023/03/20 03:40:15;;;;;;;22.05;11.70;;;;;;;4.73;100.00;101967.38;5115198;28;20035;-73
2023/03/20 03:42:55;;;;;;;25.50;11.57;;;;;;;4.71;100.00;101962.19;5115655;28;20031;-73
2023/03/20 03:45:44;;;;;;;21.83;11.70;;;;;;;4.68;100.00;101943.88;5115671;28;20046;-74
2023/03/20 03:48:16;;;;;;;23.38;12.93;;;;;;;4.69;100.00;101947.38;5115029;28;20126;-74
2023/03/20 03:50:47;;;;;;;19.10;11.82;;;;;;;4.68;100.00;101951.78;5115098;28;20028;-74
2023/03/20 03:53:19;;;;;;;25.10;13.35;;;;;;;4.68;100.00;101951.78;5114935;28;20031;-74
2023/03/20 03:55:49;;;;;;;21.52;12.05;;;;;;;4.71;100.00;101950.78;5115134;28;20027;-73
2023/03/20 03:58:20;;;;;;;22.70;11.98;;;;;;;4.67;100.00;101942.19;5114833;28;20031;-74
2023/03/20 04:00:49;;;;;;;17.27;11.75;;;;;;;4.68;100.00;101941.25;5115185;28;20045;-73
2023/03/20 04:03:16;;;;;;;27.25;12.50;;;;;;;4.69;100.00;101939.47;5114678;28;20492;-74
2023/03/20 04:05:44;;;;;;;24.55;12.20;;;;;;;4.71;100.00;101945.53;5115030;28;20085;-74
2023/03/20 04:08:10;;;;;;;20.27;11.90;;;;;;;4.71;100.00;101953.44;5114468;28;20467;-74
2023/03/20 04:10:35;;;;;;;23.63;11.77;;;;;;;4.70;100.00;101947.31;5113640;28;20081;-74
2023/03/20 04:13:01;;;;;;;25.00;11.75;;;;;;;4.71;100.00;101959.53;5114229;27;20126;-73
2023/03/20 04:15:26;;;;;;;22.38;10.98;;;;;;;4.72;100.00;101957.78;5114911;28;20455;-72
2023/03/20 04:17:52;;;;;;;24.55;11.85;;;;;;;4.74;100.00;101961.19;5114792;28;20423;-72
2023/03/20 04:20:18;;;;;;;25.00;11.80;;;;;;;4.74;100.00;101958.56;5114047;28;20039;-72
2023/03/20 04:22:44;;;;;;;20.85;11.43;;;;;;;4.72;100.00;101963.91;5113710;28;20430;-73
2023/03/20 04:25:16;;;;;;;16.38;11.80;;;;;;;4.73;100.00;101964.75;5114195;28;20058;-73
2023/03/20 04:27:41;;;;;;;21.08;11.82;;;;;;;4.75;100.00;101955.00;5114613;28;20077;-73
2023/03/20 04:30:08;;;;;;;24.20;12.20;;;;;;;4.76;100.00;101948.78;5114211;28;20413;-73
2023/03/20 04:32:33;;;;;;;22.58;11.73;;;;;;;4.77;100.00;101946.06;5114369;27;20536;-73
2023/03/20 04:34:58;;;;;;;21.60;11.65;;;;;;;4.77;100.00;101937.31;5114241;28;20106;-73
2023/03/20 04:37:24;;;;;;;22.63;11.40;;;;;;;4.79;100.00;101932.81;5114085;28;20073;-73
2023/03/20 04:39:49;;;;;;;22.55;11.88;;;;;;;4.80;100.00;101921.34;5114463;27;20067;-73
2023/03/20 04:42:15;;;;;;;20.65;12.20;;;;;;;4.80;100.00;101916.06;5113870;27;20039;-73
2023/03/20 04:44:40;;;;;;;22.92;12.20;;;;;;;4.81;100.00;101928.31;5112793;28;20039;-73
2023/03/20 04:47:06;;;;;;;21.98;11.35;;;;;;;4.82;100.00;101918.63;5112326;28;20050;-73
2023/03/20 04:49:31;;;;;;;23.25;11.65;;;;;;;4.83;100.00;101921.19;5113934;28;20076;-73
2023/03/20 04:51:56;;;;;;;22.58;11.27;;;;;;;4.84;100.00;101920.25;5113805;28;20032;-73
2023/03/20 04:54:22;;;;;;;24.73;11.73;;;;;;;4.84;100.00;101912.34;5113626;28;20038;-73
2023/03/20 04:56:47;;;;;;;17.60;10.85;;;;;;;4.83;100.00;101908.00;5113899;28;20047;-73
2023/03/20 04:59:13;;;;;;;20.38;10.35;;;;;;;4.86;100.00;101910.47;5112340;28;20074;-73
2023/03/20 05:01:38;;;;;;;20.92;11.30;;;;;;;4.87;100.00;101906.91;5112694;28;20050;-73
2023/03/20 05:04:04;;;;;;;21.90;11.07;;;;;;;4.87;100.00;101914.00;5112732;28;20077;-73
2023/03/20 05:06:33;;;;;;;25.67;11.23;;;;;;;4.88;100.00;101913.91;5113830;28;20357;-73
2023/03/20 05:08:59;;;;;;;17.48;10.05;;;;;;;4.88;100.00;101920.94;5113381;28;20050;-73
2023/03/20 05:11:25;;;;;;;26.40;10.95;;;;;;;4.87;100.00;101922.75;5113279;27;20081;-73
2023/03/20 05:13:51;;;;;;;23.67;10.73;;;;;;;4.87;100.00;101919.25;5113826;28;20059;-73
2023/03/20 05:16:16;;;;;;;20.65;10.73;;;;;;;4.86;100.00;101926.31;5111941;28;20063;-73
2023/03/20 05:18:42;;;;;;;19.77;9.90;;;;;;;4.89;100.00;101927.94;5113648;28;20043;-73
2023/03/20 05:21:07;;;;;;;19.73;10.02;;;;;;;4.89;100.00;101923.50;5113109;28;20043;-74
2023/03/20 05:23:33;;;;;;;20.75;10.48;;;;;;;4.91;100.00;101923.44;5113798;28;20379;-72
2023/03/20 05:25:58;;;;;;;22.40;9.95;;;;;;;4.91;100.00;101919.03;5113550;28;20143;-72
2023/03/20 05:28:24;;;;;;;19.80;9.65;;;;;;;4.92;100.00;101923.34;5112856;28;20028;-72
2023/03/20 05:30:49;;;;;;;23.50;10.02;;;;;;;4.92;100.00;101920.72;5113358;28;20036;-74
2023/03/20 05:33:15;;;;;;;21.55;9.95;;;;;;;4.91;100.00;101915.53;5112820;28;20101;-73
2023/03/20 05:35:41;;;;;;;20.90;10.15;;;;;;;4.89;100.00;101914.75;5113177;28;20069;-73
2023/03/20 05:38:06;;;;;;;28.92;10.93;;;;;;;4.89;100.00;101920.03;5113160;28;20035;-73
2023/03/20 05:40:31;;;;;;;26.85;10.80;;;;;;;4.89;100.00;101922.66;5112791;28;20035;-73
2023/03/20 05:42:57;;;;;;;22.55;10.20;;;;;;;4.90;100.00;101927.03;5112216;28;20523;-72
2023/03/20 05:45:22;;;;;;;23.10;9.95;;;;;;;4.90;100.00;101922.59;5111440;28;20040;-72
2023/03/20 05:47:48;;;;;;;25.83;10.75;;;;;;;4.91;100.00;101916.41;5113065;28;20110;-74
2023/03/20 05:50:13;;;;;;;23.52;9.95;;;;;;;4.91;100.00;101924.31;5112653;28;20027;-74
2023/03/20 05:52:39;;;;;;;23.80;10.57;;;;;;;4.90;100.00;101927.88;5112781;28;20020;-74
2023/03/20 05:55:05;;;;;;;22.92;10.23;;;;;;;4.92;100.00;101931.28;5112944;28;20031;-73
2023/03/20 05:57:30;;;;;;;24.83;10.02;;;;;;;4.93;100.00;101930.34;5112691;28;20040;-74
2023/03/20 05:59:56;;;;;;;23.45;9.65;;;;;;;4.92;100.00;101931.28;5111660;28;20036;-73
2023/03/20 06:02:21;;;;;;;23.92;9.57;;;;;;;4.91;100.00;101928.72;5111286;28;20031;-74
2023/03/20 06:04:46;;;;;;;26.45;10.27;;;;;;;4.94;100.00;101936.47;5112963;28;20036;-73
2023/03/20 06:07:12;;;;;;;20.50;9.95;;;;;;;4.94;100.00;101942.63;5112526;28;20032;-74
2023/03/20 06:09:37;;;;;;;18.77;9.07;;;;;;;4.97;100.00;101938.97;5112696;28;20031;-73
2023/03/20 06:12:03;;;;;;;26.08;9.38;;;;;;;5.00;100.00;101940.59;5112923;28;20032;-73
2023/03/20 06:14:28;;;;;;;28.65;10.82;;;;;;;5.03;100.00;101940.44;5112254;28;20039;-74
2023/03/20 06:16:54;;;;;;;25.38;9.13;;;;;;;5.05;100.00;101946.50;5112824;28;20444;-74
2023/03/20 06:19:20;;;;;;;23.35;9.65;;;;;;;5.08;100.00;101944.56;5111015;28;20077;-74
2023/03/20 06:21:46;;;;;;;20.58;8.60;;;;;;;5.13;100.00;101952.25;5112628;28;20043;-74
2023/03/20 06:24:12;;;;;;;18.80;8.65;;;;;;;5.17;100.00;101950.31;5112728;28;20111;-73
2023/03/20 06:26:37;;;;;;;21.40;8.45;;;;;;;5.20;100.00;101951.00;5111910;28;20114;-74
2023/03/20 06:29:02;;;;;;;25.13;8.20;;;;;;;5.23;100.00;101953.50;5111467;28;20059;-74
2023/03/20 06:31:28;;;;;;;17.95;7.95;;;;;;;5.27;100.00;101959.50;5111964;28;20039;-74
2023/03/20 06:33:53;;;;;;;26.58;8.27;;;;;;;5.32;100.00;101953.97;5112191;28;20047;-73
2023/03/20 06:36:19;;;;;;;19.30;7.45;;;;;;;5.36;100.00;101960.78;5112061;28;20127;-73
2023/03/20 06:38:44;;;;;;;21.05;8.45;;;;;;;5.39;100.00;101958.88;5112602;28;20456;-74
2023/03/20 06:41:10;;;;;;;17.45;7.72;;;;;;;5.39;100.00;101958.00;5112501;28;20035;-74
2023/03/20 06:43:36;;;;;;;16.38;7.40;;;;;;;5.41;100.00;101954.34;5112194;28;20430;-73
2023/03/20 06:46:01;;;;;;;21.77;7.70;;;;;;;5.44;100.00;101963.91;5112530;28;20034;-74
2023/03/20 06:48:26;;;;;;;17.42;6.40;;;;;;;5.49;100.00;101961.88;5111974;28;20378;-74
2023/03/20 06:50:52;;;;;;;19.63;6.55;;;;;;;5.52;100.00;101964.34;5112469;28;20034;-74
2023/03/20 06:53:18;;;;;;;16.85;6.10;;;;;;;5.51;100.00;101960.03;5112147;28;20038;-74
2023/03/20 06:55:50;;;;;;;20.02;6.53;;;;;;;5.55;100.00;101963.34;5111281;28;20035;-74
2023/03/20 06:58:16;;;;;;;15.48;6.50;;;;;;;5.56;100.00;101967.72;5112179;28;20035;-72
2023/03/20 07:00:41;;;;;;;14.98;6.50;;;;;;;5.57;100.00;101964.13;5112159;28;20057;-72
2023/03/20 07:03:07;;;;;;;20.55;7.45;;;;;;;5.59;100.00;101963.09;5112270;28;20038;-72
2023/03/20 07:05:33;;;;;;;17.88;6.40;;;;;;;5.63;100.00;101958.53;5111934;28;20483;-73
2023/03/20 07:07:59;;;;;;;20.13;6.00;;;;;;;5.67;100.00;101960.06;5111027;28;20474;-74
2023/03/20 07:10:26;;;;;;;21.58;7.07;;;;;;;5.75;100.00;101957.88;5111810;28;20032;-74
2023/03/20 07:12:51;;;;;;;28.50;6.88;;;;;;;5.82;100.00;101961.06;5110566;28;20495;-73
2023/03/20 07:15:17;;;;;;;25.08;5.88;;;;;;;5.89;100.00;101965.09;5111976;28;20032;-72
2023/03/20 07:17:43;;;;;;;18.10;6.22;;;;;;;5.95;100.00;101963.91;5110373;28;20028;-73
2023/03/20 07:20:09;;;;;;;13.60;5.20;;;;;;;6.00;100.00;101968.06;5111012;28;20035;-73
2023/03/20 07:22:36;;;;;;;21.00;5.22;;;;;;;6.00;100.00;101964.53;5111466;28;20034;-73
2023/03/20 07:25:02;;;;;;;19.20;5.93;;;;;;;5.95;100.00;101970.03;5110100;28;20032;-73
2023/03/20 07:27:28;;;;;;;16.05;6.15;;;;;;;5.87;100.00;101968.72;5091285;28;20111;-73
2023/03/20 07:29:53;;;;;;;16.10;5.43;;;;;;;5.82;100.00;101974.25;5092439;28;20040;-73
2023/03/20 07:32:19;;;;;;;16.52;6.10;;;;;;;5.77;100.00;101971.03;5090814;28;20492;-73
2023/03/20 07:34:46;;;;;;;13.57;6.03;;;;;;;5.72;100.00;101973.91;5092236;28;20100;-73
2023/03/20 07:37:11;;;;;;;17.92;5.78;;;;;;;5.70;100.00;101970.47;5092184;28;20077;-71
2023/03/20 07:39:37;;;;;;;13.82;5.13;;;;;;;5.70;100.00;101981.03;5091802;28;20464;-70
2023/03/20 07:42:02;;;;;;;16.15;6.03;;;;;;;5.68;100.00;101982.91;5091036;28;20040;-70
2023/03/20 07:44:28;;;;;;;28.08;6.45;;;;;;;5.67;100.00;101980.34;5092106;28;20053;-72
2023/03/20 07:46:53;;;;;;;17.27;6.38;;;;;;;5.65;100.00;101978.63;5092228;28;20042;-71
2023/03/20 07:49:19;;;;;;;14.35;5.13;;;;;;;5.62;100.00;101988.50;5092035;28;20036;-71
2023/03/20 07:51:48;;;;;;;26.75;7.75;;;;;;;5.60;100.00;101991.22;5091830;28;20731;-72
2023/03/20 07:54:14;;;;;;;17.13;6.53;;;;;;;5.60;100.00;101993.88;5092073;28;20105;-72
2023/03/20 07:56:40;;;;;;;20.17;5.97;;;;;;;5.59;100.00;101989.50;5091716;28;20043;-72
2023/03/20 07:59:06;;;;;;;17.98;6.03;;;;;;;5.61;100.00;101992.94;5091668;28;20511;-72
2023/03/20 08:01:31;;;;;;;21.60;6.38;;;;;;;5.61;100.00;101989.44;5091325;28;20457;-73
2023/03/20 08:03:57;;;;;;;16.77;5.72;;;;;;;5.62;100.00;101992.00;5092078;28;20530;-75
2023/03/20 08:06:22;;;;;;;20.23;5.90;;;;;;;5.65;100.00;101993.63;5091883;28;20068;-73
2023/03/20 08:08:50;;;;;;;20.00;5.93;;;;;;;5.65;100.00;101988.34;5091506;28;20036;-74
2023/03/20 08:11:16;;;;;;;22.73;5.88;;;;;;;5.64;100.00;101987.50;5092021;28;20089;-74
2023/03/20 08:13:42;;;;;;;16.92;6.03;;;;;;;5.66;100.00;101987.44;5090841;28;20419;-71
2023/03/20 08:16:08;;;;;;;18.90;5.85;;;;;;;5.69;100.00;101991.66;5102029;28;20058;-74
2023/03/20 08:18:33;;;;;;;23.98;6.78;;;;;;;5.72;100.00;101986.22;5094280;28;20079;-73
2023/03/20 08:20:59;;;;;;;17.05;6.20;;;;;;;5.76;100.00;101986.03;5114681;28;20408;-73
2023/03/20 08:23:25;;;;;;;22.45;6.60;;;;;;;5.79;100.00;101985.84;5114977;28;20039;-73
2023/03/20 08:25:52;;;;;;;14.90;5.40;;;;;;;5.85;100.00;101991.75;5114283;28;20027;-72
2023/03/20 08:28:19;;;;;;;16.95;6.70;;;;;;;5.88;100.00;101989.81;5114634;28;20032;-73
2023/03/20 08:30:44;;;;;;;16.35;6.15;;;;;;;5.91;100.00;101994.94;5112935;28;20413;-72
2023/03/20 08:33:10;;;;;;;16.88;6.00;;;;;;;5.90;100.00;101984.44;5114608;28;20062;-72
2023/03/20 08:35:36;;;;;;;21.65;5.80;;;;;;;5.92;100.00;101987.84;5114116;28;20405;-73
2023/03/20 08:38:02;;;;;;;21.20;5.97;;;;;;;5.97;100.00;101986.72;5113696;28;20486;-72
2023/03/20 08:40:28;;;;;;;18.38;6.43;;;;;;;6.02;100.00;101978.53;5114519;28;20036;-72
2023/03/20 08:42:54;;;;;;;20.45;5.78;;;;;;;6.13;100.00;101983.25;5114036;28;20420;-72
2023/03/20 08:45:20;;;;;;;15.50;5.72;;;;;;;6.18;100.00;101983.88;5114419;28;20184;-72
2023/03/20 08:47:49;;;;;;;20.05;5.20;;;;;;;6.22;100.00;101977.47;5113969;28;20474;-72
2023/03/20 08:50:14;;;;;;;16.65;5.60;;;;;;;6.33;100.00;101975.09;5114180;28;20027;-72
2023/03/20 08:52:43;;;;;;;16.67;5.55;;;;;;;6.41;100.00;101982.59;5113504;28;20038;-72
2023/03/20 08:55:12;;;;;;;25.25;6.68;;;;;;;6.50;100.00;101976.81;5092922;28;20039;-72
2023/03/20 08:57:38;;;;;;;15.50;5.95;;;;;;;6.53;100.00;101967.84;5090173;28;20027;-73
2023/03/20 09:00:06;;;;;;;18.40;6.07;;;;;;;6.65;100.00;101971.59;5090758;28;20035;-72
2023/03/20 09:02:31;;;;;;;15.65;6.00;;;;;;;6.71;100.00;101972.09;5090772;28;20032;-71
2023/03/20 09:04:57;;;;;;;13.32;6.05;;;;;;;6.77;100.00;101968.25;5090478;28;20028;-73
2023/03/20 09:07:22;;;;;;;15.18;6.00;;;;;;;6.77;100.00;101962.97;5090688;28;20024;-72
2023/03/20 09:09:47;;;;;;;16.67;6.07;;;;;;;6.79;100.00;101969.06;5090077;28;20043;-72
2023/03/20 09:12:13;;;;;;;16.52;6.18;;;;;;;6.77;100.00;101975.34;5090547;28;20032;-72
2023/03/20 09:14:38;;;;;;;20.92;7.07;;;;;;;6.72;100.00;101983.56;5089981;28;20062;-73
2023/03/20 09:17:04;;;;;;;20.48;7.20;;;;;;;6.64;100.00;101978.69;5090343;28;20071;-73
2023/03/20 09:19:30;;;;;;;19.90;7.13;;;;;;;6.57;100.00;101976.47;5090509;28;20031;-73
2023/03/20 09:21:55;;;;;;;22.83;8.05;;;;;;;6.50;100.00;101975.97;5089965;28;20135;-73
2023/03/20 09:24:21;;;;;;;18.08;8.48;;;;;;;6.48;100.00;101976.03;5089818;28;20036;-73
2023/03/20 09:26:46;;;;;;;21.30;8.43;;;;;;;6.48;100.00;101980.50;5090197;28;20135;-73
2023/03/20 09:29:12;;;;;;;19.52;8.52;;;;;;;6.43;100.00;101982.50;5090018;28;20113;-74
2023/03/20 09:31:37;;;;;;;19.27;8.98;;;;;;;6.41;100.00;101973.81;5090789;28;20035;-74
2023/03/20 09:34:02;;;;;;;18.10;7.88;;;;;;;6.39;100.00;101973.03;5088224;28;20063;-73
2023/03/20 09:36:28;;;;;;;21.65;9.68;;;;;;;6.41;100.00;101977.31;5090021;28;20399;-73
2023/03/20 09:38:53;;;;;;;21.10;9.13;;;;;;;6.43;100.00;101975.44;5089824;28;20035;-73
2023/03/20 09:41:21;;;;;;;23.70;8.93;;;;;;;6.40;100.00;101983.53;5089673;28;20354;-72
2023/03/20 09:44:05;;;;;;;26.15;9.60;;;;;;;6.48;100.00;101980.50;5089761;28;20034;-72
2023/03/20 09:46:49;;;;;;;25.08;10.18;;;;;;;6.59;100.00;101980.72;5089842;28;20024;-73
2023/03/20 09:49:40;;;;;;;24.02;9.77;;;;;;;6.65;100.00;101980.38;5089645;28;20032;-72
2023/03/20 09:52:17;;;;;;;28.00;10.75;;;;;;;6.71;100.00;101973.91;5090307;28;20034;-72
2023/03/20 09:54:46;;;;;;;22.00;10.25;;;;;;;6.82;100.00;101968.88;5089907;28;20462;-69
2023/03/20 09:57:33;;;;;;;26.17;10.85;;;;;;;6.96;100.00;101968.06;5089929;28;20079;-71
2023/03/20 10:00:17;;;;;;;22.20;10.30;;;;;;;7.03;100.00;101965.91;5089450;28;20106;-71
2023/03/20 10:03:01;;;;;;;23.42;10.32;;;;;;;7.11;100.00;101968.16;5089666;28;20078;-72
2023/03/20 10:05:30;;;;;;;23.63;9.38;;;;;;;7.12;100.00;101968.06;5089756;28;20802;-70
2023/03/20 10:08:00;;;;;;;18.02;10.07;;;;;;;7.20;100.00;101963.16;5092103;28;20035;-69
2023/03/20 10:10:52;;;;;;;21.27;10.60;;;;;;;7.21;100.00;101958.69;5105946;28;20032;-70
2023/03/20 10:13:36;;;;;;;18.77;10.02;;;;;;;7.17;100.00;101963.34;5112438;28;20060;-70
2023/03/20 10:16:34;;;;;;;17.15;9.82;;;;;;;7.11;100.00;101962.84;5112022;28;20425;-69
2023/03/20 10:18:59;;;;;;;25.50;10.80;;;;;;;7.16;100.00;101955.47;5090848;28;20340;-70
2023/03/20 10:21:42;;;;;;;20.58;11.45;;;;;;;7.26;100.00;101959.31;5112637;28;20027;-72
2023/03/20 10:24:18;;;;;;;20.15;10.65;;;;;;;7.33;100.00;101965.06;5111985;28;20077;-70
2023/03/20 10:26:47;;;;;;;24.33;10.05;;;;;;;7.37;100.00;101958.66;5112873;28;20061;-69
2023/03/20 10:29:24;;;;;;;26.35;11.32;;;;;;;7.29;100.00;101956.47;5112646;28;20020;-70
2023/03/20 10:32:28;;;;;;;19.38;10.85;;;;;;;7.13;100.00;101955.66;5112281;28;20115;-71
2023/03/20 10:35:20;;;;;;;24.15;11.05;;;;;;;7.10;100.00;101955.84;5112094;28;20070;-71
2023/03/20 10:37:51;;;;;;;21.15;10.50;;;;;;;7.13;100.00;101953.03;5112685;28;20027;-71
2023/03/20 10:40:31;;;;;;;;;;;;;;;7.09;100.00;101947.06;5112859;28;20024;-71
2023/03/20 10:43:01;;;;;;;18.02;10.45;;;;;;;7.10;100.00;101951.41;5112180;28;19911;-72
2023/03/20 10:45:35;;;;;;;27.00;10.43;;;;;;;7.09;100.00;101943.53;5111415;28;20034;-71
2023/03/20 10:48:06;;;;;;;25.52;11.30;;;;;;;7.09;100.00;101939.13;5112078;28;20121;-71
2023/03/20 10:50:37;;;;;;;26.23;11.23;;;;;;;7.16;100.00;101944.91;5112576;28;20020;-71
2023/03/20 10:53:05;;;;;;;22.10;10.68;;;;;;;7.15;100.00;101943.19;5112125;28;20331;-72
2023/03/20 10:55:38;;;;;;;21.98;11.27;;;;;;;7.18;100.00;101937.72;5112334;28;20122;-72
2023/03/20 10:58:20;;;;;;;24.17;10.95;;;;;;;7.12;100.00;101946.00;5111773;28;20084;-72
2023/03/20 11:00:46;;;;;;;21.83;11.40;;;;;;;7.15;100.00;101938.75;5112890;28;20099;-71
2023/03/20 11:03:21;;;;;;;21.83;11.05;;;;;;;7.09;100.00;101941.78;5114691;28;20507;-71
2023/03/20 11:05:51;;;;;;;26.48;12.55;;;;;;;7.14;100.00;101938.84;5116278;28;20456;-72
2023/03/20 11:08:23;;;;;;;22.93;10.87;;;;;;;7.20;100.00;101928.75;5116274;28;20023;-71
2023/03/20 11:10:56;;;;;;;;;;;;;;;7.24;100.00;101927.63;5116697;28;20027;-71
2023/03/20 11:13:26;;;;;;;27.73;11.52;;;;;;;7.23;100.00;101923.25;5116489;28;20347;-71
2023/03/20 11:15:53;;;;;;;19.25;10.15;;;;;;;7.25;100.00;101925.81;5116075;28;20137;-73
2023/03/20 11:18:19;;;;;;;25.42;11.50;;;;;;;7.28;100.00;101928.28;5116133;28;20118;-71
2023/03/20 11:20:46;;;;;;;30.63;12.02;;;;;;;7.30;100.00;101923.78;5115997;28;20452;-71
2023/03/20 11:23:18;;;;;;;19.48;10.15;;;;;;;7.33;100.00;101928.88;5115700;28;20055;-71
2023/03/20 11:26:05;;;;;;;21.45;10.38;;;;;;;7.28;100.00;101927.44;5115959;28;20031;-71
2023/03/20 11:28:39;;;;;;;23.30;11.13;;;;;;;7.29;100.00;101924.69;5114461;28;20031;-71